Time;durP1;ratioP1;P1;durP2;ratioP2;P2;SDS_P1;SDS_P2;PMS_P1;PMS_P2;Temp;Humidity;BMP_temperature;BMP_pressure;BME280_temperature;BME280_humidity;BME280_pressure;Samples;Min_cycle;Max_cycle;Signal;HPM_P1;HPM_P2
2024/01/10 00:00:57;;;;;;;12.93;3.75;;;0.90;99.90;;;;;;5013654;28;20478;-66
2024/01/10 00:03:24;;;;;;;12.70;3.22;;;0.80;99.90;;;;;;5014047;28;20053;-62
2024/01/10 00:05:51;;;;;;;12.52;3.45;;;0.80;99.90;;;;;;5015088;28;20064;-65
2024/01/10 00:08:18;;;;;;;19.52;3.55;;;0.80;99.90;;;;;;5014799;28;20054;-61
2024/01/10 00:10:45;;;;;;;10.23;2.97;;;0.80;99.90;;;;;;5014833;28;20125;-66
2024/01/10 00:13:12;;;;;;;16.23;3.50;;;0.80;99.90;;;;;;5015125;28;20057;-61
2024/01/10 00:15:38;;;;;;;14.80;3.78;;;0.90;99.90;;;;;;5014777;28;20038;-61
2024/01/10 00:18:05;;;;;;;15.63;3.55;;;0.90;99.90;;;;;;5014624;28;20041;-61
2024/01/10 00:20:32;;;;;;;17.40;3.40;;;0.90;99.90;;;;;;5014584;28;20137;-61
2024/01/10 00:22:59;;;;;;;13.18;3.50;;;0.90;99.90;;;;;;5014919;28;20441;-61
2024/01/10 00:25:26;;;;;;;15.48;3.47;;;0.90;99.90;;;;;;5014531;28;20120;-61
2024/01/10 00:27:53;;;;;;;12.88;3.10;;;0.90;99.90;;;;;;5014486;28;20061;-65
2024/01/10 00:30:19;;;;;;;14.40;3.25;;;0.90;99.90;;;;;;5015008;28;20048;-66
2024/01/10 00:32:46;;;;;;;13.70;3.42;;;0.90;99.90;;;;;;5014810;28;20048;-65
2024/01/10 00:35:13;;;;;;;13.45;3.50;;;0.80;99.90;;;;;;5014458;28;20447;-66
2024/01/10 00:37:40;;;;;;;15.75;4.30;;;0.80;99.90;;;;;;5014650;28;20137;-66
2024/01/10 00:40:10;;;;;;;12.30;3.47;;;0.80;99.90;;;;;;4997110;28;20038;-65
2024/01/10 00:42:37;;;;;;;12.30;3.65;;;0.70;99.90;;;;;;5014104;28;20046;-66
2024/01/10 00:45:04;;;;;;;15.50;4.43;;;0.70;99.90;;;;;;5014324;28;20065;-61
2024/01/10 00:47:31;;;;;;;12.35;3.30;;;0.80;99.90;;;;;;5014612;28;20501;-60
2024/01/10 00:49:58;;;;;;;14.77;3.25;;;0.70;99.90;;;;;;5013278;28;20068;-61
2024/01/10 00:52:25;;;;;;;13.15;2.97;;;0.70;99.90;;;;;;5014124;28;20053;-61
2024/01/10 00:54:52;;;;;;;11.98;3.30;;;0.60;99.90;;;;;;5014377;28;20049;-60
2024/01/10 00:57:18;;;;;;;10.02;3.30;;;0.60;99.90;;;;;;5023875;28;20033;-60
2024/01/10 00:59:45;;;;;;;11.27;3.13;;;0.50;99.90;;;;;;5031625;28;20041;-61
2024/01/10 01:02:12;;;;;;;10.23;3.05;;;0.50;99.90;;;;;;5032296;28;20049;-61
2024/01/10 01:04:39;;;;;;;8.85;2.88;;;0.40;99.90;;;;;;5032362;28;20402;-61
2024/01/10 01:07:06;;;;;;;14.52;3.65;;;0.40;99.90;;;;;;5033744;28;20045;-61
2024/01/10 01:09:33;;;;;;;16.95;4.30;;;0.30;99.90;;;;;;5032237;28;20052;-60
2024/01/10 01:11:59;;;;;;;10.57;3.40;;;0.30;99.90;;;;;;5033620;28;20128;-60
2024/01/10 01:14:26;;;;;;;13.52;3.25;;;0.30;99.90;;;;;;5033671;28;20048;-61
2024/01/10 01:16:53;;;;;;;12.75;3.50;;;0.30;99.90;;;;;;5033666;28;20041;-61
2024/01/10 01:19:20;;;;;;;20.40;3.78;;;0.20;99.90;;;;;;5033352;28;20077;-61
2024/01/10 01:21:47;;;;;;;13.02;3.28;;;0.20;99.90;;;;;;5033443;28;20048;-61
2024/01/10 01:24:14;;;;;;;21.58;3.58;;;0.20;99.90;;;;;;5033775;28;20045;-61
2024/01/10 01:26:41;;;;;;;13.43;2.97;;;0.20;99.90;;;;;;5033336;28;20092;-61
2024/01/10 01:29:08;;;;;;;12.98;3.17;;;0.20;99.90;;;;;;5033337;28;20049;-61
2024/01/10 01:31:35;;;;;;;15.32;3.53;;;0.10;99.90;;;;;;5032283;28;20049;-61
2024/01/10 01:34:02;;;;;;;13.02;4.00;;;0.20;99.90;;;;;;5031701;28;20047;-61
2024/01/10 01:36:29;;;;;;;17.08;3.65;;;0.10;99.90;;;;;;5022901;28;20065;-61
2024/01/10 01:38:56;;;;;;;14.88;3.55;;;0.10;99.90;;;;;;5013701;28;20038;-61
2024/01/10 01:41:22;;;;;;;8.77;3.30;;;0.00;99.90;;;;;;5013626;28;20049;-61
2024/01/10 01:43:50;;;;;;;21.50;4.20;;;0.00;99.90;;;;;;5012376;28;20431;-61
2024/01/10 01:46:17;;;;;;;15.85;3.53;;;0.00;99.90;;;;;;5013465;28;20438;-62
2024/01/10 01:48:43;;;;;;;14.27;2.72;;;0.00;99.90;;;;;;5013047;28;20048;-61
2024/01/10 01:51:10;;;;;;;11.75;3.38;;;-0.10;99.90;;;;;;5013500;28;20056;-61
2024/01/10 01:53:38;;;;;;;14.90;3.22;;;-0.10;99.90;;;;;;5013202;28;20046;-67
2024/01/10 01:56:05;;;;;;;16.35;3.10;;;-0.10;99.90;;;;;;5013381;28;20148;-67
2024/01/10 01:58:32;;;;;;;10.90;2.70;;;-0.10;99.90;;;;;;5012401;28;20171;-67
2024/01/10 02:00:59;;;;;;;19.85;3.30;;;-0.10;99.90;;;;;;5012894;28;20042;-67
2024/01/10 02:03:26;;;;;;;11.02;3.75;;;-0.10;99.90;;;;;;5013146;28;20042;-67
2024/01/10 02:05:53;;;;;;;14.57;3.88;;;-0.20;99.90;;;;;;5013105;28;20104;-67
2024/01/10 02:08:20;;;;;;;14.73;3.33;;;-0.20;99.90;;;;;;5013489;28;20046;-68
2024/01/10 02:10:47;;;;;;;16.75;4.05;;;-0.20;99.90;;;;;;5013525;28;20050;-68
2024/01/10 02:13:14;;;;;;;9.40;3.03;;;-0.20;99.90;;;;;;5013266;28;20050;-62
2024/01/10 02:15:40;;;;;;;10.35;2.80;;;-0.30;99.90;;;;;;5012255;28;20042;-61
2024/01/10 02:18:07;;;;;;;12.35;3.40;;;-0.20;99.90;;;;;;5013287;28;20042;-61
2024/01/10 02:20:34;;;;;;;12.38;3.75;;;-0.30;99.90;;;;;;5013109;28;20483;-61
2024/01/10 02:23:01;;;;;;;14.25;3.65;;;-0.30;99.90;;;;;;5013506;28;20045;-61
2024/01/10 02:25:28;;;;;;;13.85;3.45;;;-0.30;99.90;;;;;;5012847;28;20050;-61
2024/01/10 02:27:55;;;;;;;13.18;2.92;;;-0.30;99.90;;;;;;5013131;28;20041;-60
2024/01/10 02:30:22;;;;;;;10.10;2.90;;;-0.30;99.90;;;;;;5011636;28;20080;-61
2024/01/10 02:32:49;;;;;;;10.68;3.70;;;-0.40;99.90;;;;;;5012922;28;20049;-60
2024/01/10 02:35:16;;;;;;;13.80;2.85;;;-0.40;99.90;;;;;;5012582;28;20050;-67
2024/01/10 02:37:43;;;;;;;10.43;3.00;;;-0.40;99.90;;;;;;5012705;28;20454;-67
2024/01/10 02:40:09;;;;;;;17.38;3.80;;;-0.40;99.90;;;;;;5012678;28;20049;-67
2024/01/10 02:42:36;;;;;;;11.02;3.90;;;-0.50;99.90;;;;;;5014344;28;20052;-61
2024/01/10 02:45:03;;;;;;;19.05;4.63;;;-0.50;99.90;;;;;;5016148;28;20149;-60
2024/01/10 02:47:30;;;;;;;21.15;4.72;;;-0.50;99.90;;;;;;5015053;28;20046;-60
2024/01/10 02:49:57;;;;;;;13.15;4.18;;;-0.50;99.90;;;;;;5016285;28;20042;-66
2024/01/10 02:52:23;;;;;;;11.93;3.92;;;-0.50;99.90;;;;;;5016403;28;20061;-68
2024/01/10 02:54:50;;;;;;;12.02;3.25;;;-0.60;99.90;;;;;;5016067;28;20070;-67
2024/01/10 02:57:17;;;;;;;12.23;3.05;;;-0.60;99.90;;;;;;5016302;28;20038;-67
2024/01/10 02:59:44;;;;;;;14.90;3.58;;;-0.60;99.90;;;;;;5015005;28;20073;-66
2024/01/10 03:02:11;;;;;;;14.77;3.50;;;-0.60;99.90;;;;;;5015961;28;20041;-67
2024/01/10 03:04:38;;;;;;;12.73;3.53;;;-0.60;99.90;;;;;;5016487;28;20065;-67
2024/01/10 03:07:05;;;;;;;13.20;3.10;;;-0.60;99.90;;;;;;5016358;28;20045;-61
2024/01/10 03:09:32;;;;;;;20.77;3.30;;;-0.60;99.90;;;;;;5016487;28;20044;-61
2024/01/10 03:11:58;;;;;;;11.20;2.65;;;-0.60;99.90;;;;;;5015814;28;20065;-60
2024/01/10 03:14:25;;;;;;;11.82;2.97;;;-0.60;99.90;;;;;;5014439;28;20038;-60
2024/01/10 03:16:53;;;;;;;14.57;2.80;;;-0.60;99.90;;;;;;5015160;28;20372;-60
2024/01/10 03:19:20;;;;;;;13.15;3.33;;;-0.60;99.90;;;;;;5015728;28;20360;-62
2024/01/10 03:21:46;;;;;;;8.48;2.55;;;-0.60;99.90;;;;;;4998388;28;20049;-61
2024/01/10 03:24:13;;;;;;;9.52;2.90;;;-0.70;99.90;;;;;;5015724;28;20049;-60
2024/01/10 03:26:40;;;;;;;13.85;2.72;;;-0.70;99.90;;;;;;5015997;28;20041;-61
2024/01/10 03:29:07;;;;;;;10.48;2.60;;;-0.70;99.90;;;;;;5015786;28;20065;-61
2024/01/10 03:31:34;;;;;;;16.73;2.90;;;-0.70;99.90;;;;;;5015652;28;20459;-60
2024/01/10 03:34:01;;;;;;;9.60;2.97;;;-0.70;99.90;;;;;;5015517;28;20049;-60
2024/01/10 03:36:27;;;;;;;10.65;2.78;;;-0.70;99.90;;;;;;5014357;28;20125;-66
2024/01/10 03:38:54;;;;;;;10.40;2.53;;;-0.70;99.90;;;;;;5013997;28;20052;-67
2024/01/10 03:41:21;;;;;;;13.45;2.80;;;-0.70;99.90;;;;;;5015844;28;20046;-61
2024/01/10 03:43:48;;;;;;;7.70;2.83;;;-0.70;99.90;;;;;;5015496;28;20061;-61
2024/01/10 03:46:15;;;;;;;14.30;2.80;;;-0.70;99.90;;;;;;5015353;28;20046;-60
2024/01/10 03:48:47;;;;;;;11.85;2.97;;;-0.70;99.90;;;;;;5015297;28;20038;-61
2024/01/10 03:51:15;;;;;;;13.45;2.75;;;-0.80;99.90;;;;;;5015395;28;20049;-61
2024/01/10 03:53:42;;;;;;;11.50;2.90;;;-0.80;99.90;;;;;;5014451;28;20065;-60
2024/01/10 03:56:09;;;;;;;15.70;2.38;;;-0.70;99.90;;;;;;5014702;28;20046;-61
2024/01/10 03:58:36;;;;;;;9.57;2.95;;;-0.80;99.90;;;;;;5014976;28;20033;-66
2024/01/10 04:01:03;;;;;;;14.52;2.30;;;-0.80;99.90;;;;;;5014966;28;20042;-66
2024/01/10 04:03:30;;;;;;;5.50;1.65;;;-0.80;99.90;;;;;;5014805;28;20072;-61
2024/01/10 04:05:56;;;;;;;19.95;2.38;;;-0.80;99.90;;;;;;5015285;28;20088;-60
2024/01/10 04:08:24;;;;;;;10.13;2.05;;;-0.80;99.90;;;;;;5015253;28;20129;-60
2024/01/10 04:10:51;;;;;;;10.25;2.20;;;-0.70;99.90;;;;;;5015142;28;20539;-63
2024/01/10 04:13:17;;;;;;;11.45;2.30;;;-0.70;99.90;;;;;;5013298;28;20497;-60
2024/01/10 04:15:44;;;;;;;11.82;3.47;;;-0.70;99.90;;;;;;5014892;28;20042;-61
2024/01/10 04:18:11;;;;;;;10.32;2.03;;;-0.70;99.90;;;;;;5015020;28;20037;-60
2024/01/10 04:20:43;;;;;;;12.77;2.05;;;-0.70;99.90;;;;;;5014479;28;20078;-61
2024/01/10 04:23:11;;;;;;;13.18;2.75;;;-0.70;99.90;;;;;;5014452;28;20073;-61
2024/01/10 04:25:38;;;;;;;7.20;1.98;;;-0.60;99.90;;;;;;5014710;28;20050;-68
2024/01/10 04:28:05;;;;;;;11.45;2.80;;;-0.60;99.90;;;;;;4997402;28;20066;-66
2024/01/10 04:30:32;;;;;;;13.70;2.30;;;-0.60;99.90;;;;;;5013773;28;20037;-66
2024/01/10 04:32:59;;;;;;;10.57;2.20;;;-0.60;99.90;;;;;;5014906;28;20045;-66
2024/01/10 04:35:26;;;;;;;11.70;3.05;;;-0.60;99.90;;;;;;5014917;28;20471;-67
2024/01/10 04:37:53;;;;;;;14.32;2.72;;;-0.50;99.90;;;;;;5013171;28;20046;-66
2024/01/10 04:40:20;;;;;;;9.50;1.95;;;-0.50;99.90;;;;;;5014315;28;20041;-67
2024/01/10 04:42:47;;;;;;;17.52;2.28;;;-0.40;99.90;;;;;;5014577;28;20042;-66
2024/01/10 04:45:13;;;;;;;9.13;2.63;;;-0.40;99.90;;;;;;5014522;28;20042;-66
2024/01/10 04:47:40;;;;;;;11.57;1.92;;;-0.40;99.90;;;;;;5013580;28;20049;-60
2024/01/10 04:50:07;;;;;;;12.38;2.22;;;-0.30;99.90;;;;;;5014369;28;20050;-60
2024/01/10 04:52:39;;;;;;;9.93;1.88;;;-0.30;99.90;;;;;;5014277;28;20129;-60
2024/01/10 04:55:07;;;;;;;13.23;2.67;;;-0.30;99.90;;;;;;5013847;28;20585;-61
2024/01/10 04:57:35;;;;;;;9.15;2.13;;;-0.30;99.90;;;;;;5014214;28;20386;-60
2024/01/10 05:00:01;;;;;;;10.25;1.83;;;-0.30;99.90;;;;;;5013829;28;20057;-60
2024/01/10 05:02:28;;;;;;;11.40;1.73;;;-0.30;99.90;;;;;;5014427;28;20042;-66
2024/01/10 05:04:55;;;;;;;12.45;1.98;;;-0.30;99.90;;;;;;5013261;28;20037;-67
2024/01/10 05:07:22;;;;;;;9.15;1.73;;;-0.30;99.90;;;;;;5013342;28;20042;-66
2024/01/10 05:09:49;;;;;;;10.25;2.47;;;-0.30;99.90;;;;;;5013855;28;20383;-66
2024/01/10 05:12:16;;;;;;;9.82;2.13;;;-0.30;99.90;;;;;;5014061;28;20395;-67
2024/01/10 05:14:42;;;;;;;11.30;1.98;;;-0.30;99.90;;;;;;5013562;28;20041;-66
2024/01/10 05:17:09;;;;;;;15.18;3.55;;;-0.30;99.90;;;;;;5013937;28;20049;-61
2024/01/10 05:19:36;;;;;;;12.18;2.20;;;-0.30;99.90;;;;;;5013422;28;20056;-61
2024/01/10 05:22:04;;;;;;;13.02;2.55;;;-0.30;99.90;;;;;;5012537;28;20053;-61
2024/01/10 05:24:31;;;;;;;12.90;1.95;;;-0.30;99.90;;;;;;5013663;28;20113;-67
2024/01/10 05:26:58;;;;;;;13.70;2.15;;;-0.20;99.90;;;;;;5013611;28;20042;-67
2024/01/10 05:29:25;;;;;;;12.13;2.63;;;-0.20;99.90;;;;;;5013787;28;20124;-66
2024/01/10 05:31:52;;;;;;;12.95;2.55;;;-0.20;99.90;;;;;;5012012;28;20045;-61
2024/01/10 05:34:18;;;;;;;7.97;2.00;;;-0.20;99.90;;;;;;5013231;28;20438;-61
2024/01/10 05:36:45;;;;;;;7.50;2.10;;;-0.20;99.90;;;;;;5013270;28;20483;-61
2024/01/10 05:39:15;;;;;;;14.73;2.13;;;-0.20;99.90;;;;;;5013532;28;20041;-61
2024/01/10 05:41:43;;;;;;;8.85;1.80;;;-0.30;99.90;;;;;;5013729;28;20099;-61
2024/01/10 05:44:12;;;;;;;10.73;2.45;;;-0.30;99.90;;;;;;5013468;28;20046;-61
2024/01/10 05:46:40;;;;;;;13.38;2.67;;;-0.40;99.90;;;;;;5011889;28;20057;-60
2024/01/10 05:49:06;;;;;;;9.55;2.08;;;-0.40;99.90;;;;;;5013249;28;20479;-61
2024/01/10 05:51:33;;;;;;;12.93;2.30;;;-0.40;99.90;;;;;;5012475;28;20038;-61
2024/01/10 05:54:00;;;;;;;9.60;2.17;;;-0.40;99.90;;;;;;5013159;28;20050;-60
2024/01/10 05:56:28;;;;;;;11.27;2.25;;;-0.40;99.90;;;;;;5013062;28;20435;-61
2024/01/10 05:58:55;;;;;;;10.80;2.33;;;-0.40;99.90;;;;;;5012924;28;20038;-61
2024/01/10 06:01:22;;;;;;;10.27;2.05;;;-0.50;99.90;;;;;;5013246;28;20042;-66
2024/01/10 06:03:48;;;;;;;9.35;2.05;;;-0.50;99.90;;;;;;5011715;28;20056;-60
2024/01/10 06:06:15;;;;;;;9.77;1.63;;;-0.40;99.90;;;;;;5012272;28;20038;-61
2024/01/10 06:08:42;;;;;;;8.23;2.55;;;-0.50;99.90;;;;;;5013646;28;20041;-60
2024/01/10 06:11:09;;;;;;;6.28;1.52;;;-0.50;99.90;;;;;;5012872;28;20070;-66
2024/01/10 06:13:37;;;;;;;8.43;1.77;;;-0.40;99.90;;;;;;5012670;28;20048;-66
2024/01/10 06:16:19;;;;;;;7.43;1.88;;;-0.40;99.90;;;;;;5013269;28;20070;-66
2024/01/10 06:18:46;;;;;;;10.23;1.80;;;-0.40;99.90;;;;;;5031352;28;20049;-66
2024/01/10 06:21:13;;;;;;;7.65;1.75;;;-0.40;99.90;;;;;;5037023;28;20160;-60
2024/01/10 06:23:40;;;;;;;11.52;1.77;;;-0.40;99.90;;;;;;5036841;28;20042;-60
2024/01/10 06:26:07;;;;;;;12.68;1.92;;;-0.40;99.90;;;;;;5036987;28;20061;-66
2024/01/10 06:28:34;;;;;;;6.60;2.20;;;-0.40;99.90;;;;;;5036743;28;20053;-66
2024/01/10 06:31:01;;;;;;;15.23;2.72;;;-0.40;99.90;;;;;;5036659;28;20046;-67
2024/01/10 06:33:28;;;;;;;21.90;2.78;;;-0.50;99.90;;;;;;5036386;28;20491;-67
2024/01/10 06:35:55;;;;;;;7.78;2.17;;;-0.50;99.90;;;;;;5035416;28;20046;-66
2024/01/10 06:38:22;;;;;;;12.00;1.88;;;-0.50;99.90;;;;;;5036294;28;20037;-61
2024/01/10 06:40:50;;;;;;;14.20;1.83;;;-0.50;99.90;;;;;;5036065;28;20467;-60
2024/01/10 06:43:17;;;;;;;8.85;1.67;;;-0.50;99.90;;;;;;5034631;28;20057;-61
2024/01/10 06:45:44;;;;;;;9.63;1.75;;;-0.50;99.90;;;;;;5036207;28;20037;-60
2024/01/10 06:48:11;;;;;;;6.03;1.95;;;-0.50;99.90;;;;;;5036142;28;20042;-60
2024/01/10 06:50:39;;;;;;;10.27;2.17;;;-0.50;99.90;;;;;;5035863;28;20115;-61
2024/01/10 06:53:06;;;;;;;9.32;1.83;;;-0.50;99.90;;;;;;5036131;28;20467;-60
2024/01/10 06:55:33;;;;;;;10.63;1.80;;;-0.50;99.90;;;;;;5034679;28;20048;-61
2024/01/10 06:57:59;;;;;;;13.15;1.95;;;-0.50;99.90;;;;;;5036105;28;20045;-60
2024/01/10 07:00:26;;;;;;;9.55;2.00;;;-0.60;99.90;;;;;;5036208;28;20042;-66
2024/01/10 07:02:53;;;;;;;20.13;4.35;;;-0.50;99.90;;;;;;5035938;28;20038;-66
2024/01/10 07:05:20;;;;;;;12.90;1.95;;;-0.50;99.90;;;;;;5035654;28;20041;-66
2024/01/10 07:07:49;;;;;;;10.80;3.70;;;-0.50;99.90;;;;;;5034660;28;20402;-67
2024/01/10 07:10:16;;;;;;;11.38;2.42;;;-0.50;99.90;;;;;;5034935;28;20047;-66
2024/01/10 07:12:43;;;;;;;7.18;1.95;;;-0.60;99.90;;;;;;5035741;28;20490;-67
2024/01/10 07:15:11;;;;;;;10.63;1.67;;;-0.60;99.90;;;;;;5035338;28;20045;-66
2024/01/10 07:17:37;;;;;;;6.90;1.55;;;-0.50;99.90;;;;;;5035445;28;20046;-66
2024/01/10 07:20:05;;;;;;;10.05;1.80;;;-0.50;99.90;;;;;;5033967;28;20057;-66
2024/01/10 07:22:32;;;;;;;11.75;1.63;;;-0.60;99.90;;;;;;5035642;28;20036;-66
2024/01/10 07:24:59;;;;;;;10.20;2.08;;;-0.60;99.90;;;;;;5034401;28;20053;-61
2024/01/10 07:27:26;;;;;;;9.43;1.77;;;-0.60;99.90;;;;;;5035433;28;20045;-61
2024/01/10 07:29:52;;;;;;;10.73;2.28;;;-0.60;99.90;;;;;;5034784;28;20037;-60
2024/01/10 07:32:19;;;;;;;9.50;2.25;;;-0.60;99.90;;;;;;5034168;28;20155;-60
2024/01/10 07:34:46;;;;;;;13.95;2.20;;;-0.60;99.90;;;;;;5030588;28;20042;-60
2024/01/10 07:37:16;;;;;;;9.13;1.80;;;-0.60;99.90;;;;;;5033644;28;20406;-64
2024/01/10 07:39:43;;;;;;;7.68;1.85;;;-0.60;99.90;;;;;;5034001;28;20048;-66
2024/01/10 07:42:10;;;;;;;14.30;1.70;;;-0.60;99.90;;;;;;5035362;28;20041;-61
2024/01/10 07:44:37;;;;;;;6.32;1.45;;;-0.60;99.90;;;;;;5035190;28;20044;-61
2024/01/10 07:47:04;;;;;;;9.57;1.67;;;-0.60;99.90;;;;;;5035237;28;20049;-62
2024/01/10 07:49:32;;;;;;;9.95;1.90;;;-0.60;99.90;;;;;;5033246;28;20050;-61
2024/01/10 07:51:58;;;;;;;9.95;2.05;;;-0.50;99.90;;;;;;5035110;28;20459;-61
2024/01/10 07:54:25;;;;;;;10.63;1.50;;;-0.50;99.90;;;;;;5035036;28;20042;-61
2024/01/10 07:56:54;;;;;;;11.75;1.58;;;-0.40;99.90;;;;;;5034747;28;20033;-61
2024/01/10 07:59:21;;;;;;;10.90;1.75;;;-0.40;99.90;;;;;;5035169;28;20038;-61
2024/01/10 08:01:48;;;;;;;14.43;1.77;;;-0.30;99.90;;;;;;5035047;28;20037;-61
2024/01/10 08:04:15;;;;;;;11.50;1.67;;;-0.30;99.90;;;;;;5034185;28;20560;-61
2024/01/10 08:06:42;;;;;;;7.93;2.15;;;-0.20;99.90;;;;;;5034596;28;20120;-61
2024/01/10 08:09:10;;;;;;;11.98;2.13;;;-0.20;99.90;;;;;;5034683;28;20372;-62
2024/01/10 08:11:38;;;;;;;10.73;2.50;;;-0.10;99.90;;;;;;5034721;28;20421;-61
2024/01/10 08:14:05;;;;;;;8.25;2.45;;;-0.10;99.90;;;;;;5034508;28;20105;-62
2024/01/10 08:16:35;;;;;;;10.63;2.58;;;-0.10;99.90;;;;;;5034665;28;20076;-61
2024/01/10 08:19:01;;;;;;;9.88;2.28;;;-0.10;99.90;;;;;;5034092;28;20041;-61
2024/01/10 08:21:29;;;;;;;16.40;3.60;;;-0.10;99.90;;;;;;5033151;28;20041;-61
2024/01/10 08:23:55;;;;;;;12.73;3.25;;;0.00;99.90;;;;;;5034422;28;20128;-61
2024/01/10 08:26:22;;;;;;;8.75;3.40;;;0.00;99.90;;;;;;5034294;28;20045;-60
2024/01/10 08:28:49;;;;;;;11.48;4.68;;;0.00;99.90;;;;;;5033186;28;20049;-60
2024/01/10 08:31:16;;;;;;;14.02;3.67;;;0.00;99.90;;;;;;5033477;28;20486;-61
2024/01/10 08:33:43;;;;;;;10.88;3.22;;;0.10;99.90;;;;;;5032276;28;20049;-61
2024/01/10 08:36:10;;;;;;;13.75;3.75;;;0.10;99.90;;;;;;5033689;28;20128;-61
2024/01/10 08:38:37;;;;;;;11.25;2.60;;;0.10;99.90;;;;;;5032098;28;20402;-66
2024/01/10 08:41:04;;;;;;;10.40;2.55;;;0.10;99.90;;;;;;5033413;28;20041;-66
2024/01/10 08:43:31;;;;;;;7.70;2.10;;;0.10;99.90;;;;;;5019299;28;20049;-66
2024/01/10 08:45:58;;;;;;;9.48;2.10;;;0.10;99.90;;;;;;5014103;28;20121;-66
2024/01/10 08:48:25;;;;;;;8.40;2.15;;;0.20;99.90;;;;;;5014028;28;20084;-65
2024/01/10 08:50:54;;;;;;;9.80;2.70;;;0.20;99.90;;;;;;5013709;28;20111;-66
2024/01/10 08:53:21;;;;;;;10.70;2.22;;;0.20;99.90;;;;;;5013601;28;20045;-66
2024/01/10 08:55:48;;;;;;;15.38;2.25;;;0.20;99.90;;;;;;5014278;28;20045;-61
2024/01/10 08:58:14;;;;;;;19.10;2.25;;;0.30;99.90;;;;;;5014126;28;20060;-61
2024/01/10 09:00:41;;;;;;;7.90;1.88;;;0.30;99.90;;;;;;5014377;28;20034;-61
2024/01/10 09:03:08;;;;;;;4.82;1.83;;;0.30;99.90;;;;;;5013983;28;20045;-64
2024/01/10 09:05:36;;;;;;;7.22;1.85;;;0.30;99.90;;;;;;5014080;28;20102;-66
2024/01/10 09:08:03;;;;;;;10.68;1.95;;;0.40;99.90;;;;;;5012213;28;20490;-65
2024/01/10 09:10:30;;;;;;;14.18;2.45;;;0.40;99.90;;;;;;5013934;28;20049;-65
2024/01/10 09:12:56;;;;;;;8.85;2.42;;;0.40;99.90;;;;;;5013810;28;20057;-65
2024/01/10 09:15:24;;;;;;;9.43;2.28;;;0.50;99.90;;;;;;5013617;28;20459;-65
2024/01/10 09:17:54;;;;;;;7.82;2.40;;;0.50;99.90;;;;;;5014016;28;20092;-61
2024/01/10 09:20:21;;;;;;;13.50;3.10;;;0.50;99.90;;;;;;5012515;28;20494;-61
2024/01/10 09:22:48;;;;;;;13.38;2.20;;;0.60;99.90;;;;;;5014074;28;20103;-61
2024/01/10 09:25:16;;;;;;;10.50;1.98;;;0.60;99.90;;;;;;5013133;28;20042;-61
2024/01/10 09:27:44;;;;;;;11.05;1.73;;;0.70;99.90;;;;;;5013275;28;20046;-61
2024/01/10 09:30:12;;;;;;;10.48;2.13;;;0.70;99.90;;;;;;5013736;28;20069;-61
2024/01/10 09:32:39;;;;;;;14.23;4.68;;;0.70;99.90;;;;;;5013703;28;20065;-67
2024/01/10 09:35:06;;;;;;;10.50;4.05;;;0.80;99.90;;;;;;5012591;28;20458;-66
2024/01/10 09:37:33;;;;;;;15.02;3.20;;;0.80;99.90;;;;;;5013361;28;20034;-66
2024/01/10 09:40:00;;;;;;;16.13;3.17;;;0.90;99.90;;;;;;5013632;28;20038;-65
2024/01/10 09:42:31;;;;;;;15.07;2.63;;;0.90;99.90;;;;;;4995742;28;20038;-66
2024/01/10 09:45:00;;;;;;;11.93;2.75;;;1.00;99.90;;;;;;5013645;28;20101;-66
2024/01/10 09:47:26;;;;;;;10.27;2.67;;;1.10;99.90;;;;;;5013369;28;20045;-61
2024/01/10 09:49:53;;;;;;;8.57;2.30;;;1.10;99.90;;;;;;5013666;28;20129;-62
2024/01/10 09:52:20;;;;;;;7.75;2.33;;;1.10;99.90;;;;;;5015203;28;20050;-61
2024/01/10 09:54:47;;;;;;;10.85;2.17;;;1.20;99.90;;;;;;5017601;28;20479;-61
2024/01/10 09:57:14;;;;;;;10.68;2.33;;;1.20;99.90;;;;;;5017133;28;20049;-62
2024/01/10 09:59:41;;;;;;;8.82;1.83;;;1.40;99.90;;;;;;5015652;28;20053;-66
2024/01/10 10:02:08;;;;;;;7.38;2.00;;;1.40;99.90;;;;;;5017489;28;20041;-67
2024/01/10 10:04:35;;;;;;;8.63;1.60;;;1.50;99.90;;;;;;5017056;28;20509;-66
2024/01/10 10:07:02;;;;;;;8.65;2.15;;;1.60;99.90;;;;;;5016222;28;20038;-66
2024/01/10 10:09:30;;;;;;;13.13;1.77;;;1.70;99.90;;;;;;5017060;28;20049;-67
2024/01/10 10:11:59;;;;;;;9.70;1.88;;;1.70;99.90;;;;;;5016998;28;20049;-66
2024/01/10 10:14:26;;;;;;;8.65;1.92;;;1.80;99.90;;;;;;5016691;28;20052;-61
2024/01/10 10:16:53;;;;;;;9.30;1.65;;;1.80;99.90;;;;;;5017249;28;20048;-61
2024/01/10 10:19:20;;;;;;;7.22;1.75;;;1.90;99.90;;;;;;5015764;28;20538;-60
2024/01/10 10:22:00;;;;;;;12.00;2.17;;;1.90;99.90;;;;;;5016978;28;20604;-61
2024/01/10 10:24:27;;;;;;;5.40;1.73;;;2.00;99.90;;;;;;5015622;28;20483;-61
2024/01/10 10:26:58;;;;;;;8.88;2.55;;;2.10;99.90;;;;;;5016993;28;20038;-61
2024/01/10 10:29:25;;;;;;;9.35;1.52;;;2.10;99.90;;;;;;5017127;28;20394;-60
2024/01/10 10:31:52;;;;;;;11.05;1.75;;;2.10;99.90;;;;;;5017008;28;20169;-61
2024/01/10 10:34:19;;;;;;;16.80;1.83;;;2.10;99.90;;;;;;5016659;28;20100;-61
2024/01/10 10:36:47;;;;;;;11.73;2.15;;;2.20;99.90;;;;;;5016537;28;20046;-61
2024/01/10 10:39:14;;;;;;;11.85;1.83;;;2.30;99.90;;;;;;5016757;28;20034;-61
2024/01/10 10:41:41;;;;;;;9.45;1.80;;;2.30;99.90;;;;;;5016803;28;20034;-61
2024/01/10 10:44:08;;;;;;;7.55;1.55;;;2.40;99.90;;;;;;5016755;28;20045;-61
2024/01/10 10:46:36;;;;;;;7.88;2.05;;;2.40;99.90;;;;;;5016440;28;20379;-65
2024/01/10 10:49:02;;;;;;;11.45;2.13;;;2.50;99.90;;;;;;5016170;28;20049;-67
2024/01/10 10:51:29;;;;;;;11.10;1.85;;;2.50;99.90;;;;;;5016364;28;20044;-65
2024/01/10 10:53:56;;;;;;;10.10;2.10;;;2.60;99.90;;;;;;5016200;28;20518;-66
2024/01/10 10:56:23;;;;;;;9.23;1.55;;;2.60;99.90;;;;;;5016678;28;20046;-65
2024/01/10 10:58:50;;;;;;;7.03;1.45;;;2.50;99.90;;;;;;5016606;28;20048;-66
2024/01/10 11:01:17;;;;;;;9.23;2.05;;;2.40;99.90;;;;;;5015143;28;20096;-66
2024/01/10 11:03:47;;;;;;;12.73;1.63;;;2.40;99.90;;;;;;5014847;28;20041;-66
2024/01/10 11:06:14;;;;;;;13.52;1.90;;;2.30;99.90;;;;;;5014664;28;20050;-65
2024/01/10 11:08:41;;;;;;;8.88;2.47;;;2.30;99.90;;;;;;5015664;28;20046;-66
2024/01/10 11:11:08;;;;;;;9.60;2.03;;;2.30;99.90;;;;;;5016004;28;20125;-65
2024/01/10 11:13:34;;;;;;;9.93;1.92;;;2.30;99.90;;;;;;5016192;28;20052;-66
2024/01/10 11:16:03;;;;;;;6.95;1.88;;;2.30;99.90;;;;;;4998144;28;20442;-66
2024/01/10 11:18:30;;;;;;;9.57;2.00;;;2.40;99.90;;;;;;5015934;28;20074;-65
2024/01/10 11:20:58;;;;;;;9.80;2.42;;;2.40;99.90;;;;;;5015531;28;20042;-65
2024/01/10 11:23:25;;;;;;;13.07;2.60;;;2.40;99.90;;;;;;5015876;28;20545;-67
2024/01/10 11:25:52;;;;;;;8.85;1.95;;;2.50;99.90;;;;;;5015714;28;20046;-65
2024/01/10 11:28:19;;;;;;;14.23;2.15;;;2.50;99.90;;;;;;5015346;28;20037;-66
2024/01/10 11:30:46;;;;;;;10.95;2.28;;;2.60;99.90;;;;;;5015868;28;20050;-61
2024/01/10 11:33:13;;;;;;;8.50;2.70;;;2.70;99.90;;;;;;5015782;28;20046;-61
2024/01/10 11:35:40;;;;;;;5.78;1.75;;;2.70;99.90;;;;;;5024064;28;20479;-61
2024/01/10 11:38:06;;;;;;;9.45;2.38;;;2.70;99.90;;;;;;5034636;28;20099;-62
2024/01/10 11:40:33;;;;;;;9.95;2.00;;;2.80;99.90;;;;;;5034689;28;20065;-61
2024/01/10 11:43:00;;;;;;;10.52;2.60;;;2.80;99.90;;;;;;5034819;28;20095;-61
2024/01/10 11:45:27;;;;;;;7.88;2.08;;;2.80;99.90;;;;;;5034336;28;20041;-61
2024/01/10 11:47:54;;;;;;;14.85;2.38;;;2.90;99.90;;;;;;5034662;28;20881;-61
2024/01/10 11:50:21;;;;;;;13.60;2.20;;;2.90;99.90;;;;;;5034303;28;20041;-61
2024/01/10 11:52:47;;;;;;;10.38;1.73;;;3.00;99.90;;;;;;5034346;28;20052;-60
2024/01/10 11:55:14;;;;;;;9.77;2.60;;;3.00;99.90;;;;;;5034014;28;20050;-66
2024/01/10 11:57:42;;;;;;;16.30;2.85;;;3.00;99.90;;;;;;5033077;28;20410;-66
2024/01/10 12:00:09;;;;;;;10.18;2.45;;;3.10;99.90;;;;;;5034042;28;20483;-67
2024/01/10 12:02:36;;;;;;;10.25;1.85;;;3.10;99.90;;;;;;5034432;28;20042;-67
2024/01/10 12:05:04;;;;;;;11.32;2.40;;;3.20;99.90;;;;;;5027918;28;20046;-67
2024/01/10 12:07:31;;;;;;;11.00;2.47;;;3.20;99.90;;;;;;5014297;28;20072;-66
2024/01/10 12:09:58;;;;;;;11.10;2.20;;;3.20;99.90;;;;;;5014368;28;20052;-66
2024/01/10 12:12:25;;;;;;;10.57;3.20;;;3.30;99.90;;;;;;4996529;28;20513;-67
2024/01/10 12:14:51;;;;;;;19.05;5.50;;;3.30;99.90;;;;;;5033676;28;20522;-66
2024/01/10 12:17:19;;;;;;;16.35;4.70;;;3.30;99.90;;;;;;5033936;28;20037;-66
2024/01/10 12:19:47;;;;;;;5.95;2.65;;;3.40;99.90;;;;;;5033754;28;20487;-66
2024/01/10 12:22:15;;;;;;;13.48;2.70;;;3.50;99.90;;;;;;5032579;28;20042;-67
2024/01/10 12:24:43;;;;;;;11.13;2.50;;;3.50;99.90;;;;;;5033707;28;20033;-66
2024/01/10 12:27:10;;;;;;;6.88;2.30;;;3.50;99.90;;;;;;5033948;28;20049;-66
2024/01/10 12:29:37;;;;;;;11.75;3.58;;;3.50;99.90;;;;;;5033609;28;20045;-66
2024/01/10 12:32:04;;;;;;;15.50;2.50;;;3.60;99.90;;;;;;5033738;28;20049;-66
2024/01/10 12:34:31;;;;;;;7.43;2.35;;;3.60;99.90;;;;;;5033259;28;20049;-67
2024/01/10 12:36:57;;;;;;;9.40;1.85;;;3.60;99.90;;;;;;5033404;28;20049;-67
2024/01/10 12:39:25;;;;;;;6.47;1.95;;;3.70;99.90;;;;;;5033345;28;20033;-68
2024/01/10 12:41:52;;;;;;;6.93;1.83;;;3.70;99.90;;;;;;5033923;28;20115;-66
2024/01/10 12:44:19;;;;;;;9.68;2.42;;;3.70;99.90;;;;;;5032945;28;20038;-66